sensor_id;sensor_type;location;lat;lon;timestamp;pressure;altitude;pressure_sealevel;temperature
69435;BMP180;56625;54.322;18.582;2023-05-07T00:00:31;101798.40;;;5.90
69435;BMP180;56625;54.322;18.582;2023-05-07T00:03:18;101795.80;;;5.88
69435;BMP180;56625;54.322;18.582;2023-05-07T00:05:46;101796.20;;;5.80
69435;BMP180;56625;54.322;18.582;2023-05-07T00:08:14;101785.00;;;5.90
69435;BMP180;56625;54.322;18.582;2023-05-07T00:10:42;101788.20;;;5.90
69435;BMP180;56625;54.322;18.582;2023-05-07T00:13:10;101793.20;;;5.90
69435;BMP180;56625;54.322;18.582;2023-05-07T00:15:38;101785.60;;;5.84
69435;BMP180;56625;54.322;18.582;2023-05-07T00:18:06;101789.00;;;5.80
69435;BMP180;56625;54.322;18.582;2023-05-07T00:20:34;101787.80;;;5.76
69435;BMP180;56625;54.322;18.582;2023-05-07T00:23:03;101791.20;;;5.70
69435;BMP180;56625;54.322;18.582;2023-05-07T00:25:31;101788.80;;;5.70
69435;BMP180;56625;54.322;18.582;2023-05-07T00:27:58;101788.60;;;5.60
69435;BMP180;56625;54.322;18.582;2023-05-07T00:30:31;101795.00;;;5.60
69435;BMP180;56625;54.322;18.582;2023-05-07T00:32:59;101794.20;;;5.60
69435;BMP180;56625;54.322;18.582;2023-05-07T00:35:29;101794.80;;;5.60
69435;BMP180;56625;54.322;18.582;2023-05-07T00:37:57;101789.60;;;5.58
69435;BMP180;56625;54.322;18.582;2023-05-07T00:40:25;101798.60;;;5.50
69435;BMP180;56625;54.322;18.582;2023-05-07T00:42:53;101800.80;;;5.40
69435;BMP180;56625;54.322;18.582;2023-05-07T00:45:27;101800.80;;;5.40
69435;BMP180;56625;54.322;18.582;2023-05-07T00:48:01;101802.20;;;5.30
69435;BMP180;56625;54.322;18.582;2023-05-07T00:50:31;101801.40;;;5.28
69435;BMP180;56625;54.322;18.582;2023-05-07T00:53:00;101800.60;;;5.20
69435;BMP180;56625;54.322;18.582;2023-05-07T00:55:28;101805.80;;;5.10
69435;BMP180;56625;54.322;18.582;2023-05-07T00:57:57;101807.00;;;5.10
69435;BMP180;56625;54.322;18.582;2023-05-07T01:00:25;101806.80;;;5.00
69435;BMP180;56625;54.322;18.582;2023-05-07T01:02:53;101810.80;;;5.00
69435;BMP180;56625;54.322;18.582;2023-05-07T01:05:23;101808.40;;;5.00
69435;BMP180;56625;54.322;18.582;2023-05-07T01:07:54;101806.40;;;5.00
69435;BMP180;56625;54.322;18.582;2023-05-07T01:10:24;101815.60;;;4.90
69435;BMP180;56625;54.322;18.582;2023-05-07T01:12:53;101816.80;;;4.90
69435;BMP180;56625;54.322;18.582;2023-05-07T01:15:21;101816.00;;;4.80
69435;BMP180;56625;54.322;18.582;2023-05-07T01:17:49;101820.60;;;4.70
69435;BMP180;56625;54.322;18.582;2023-05-07T01:20:18;101825.20;;;4.70
69435;BMP180;56625;54.322;18.582;2023-05-07T01:22:47;101825.60;;;4.60
69435;BMP180;56625;54.322;18.582;2023-05-07T01:25:16;101821.80;;;4.50
69435;BMP180;56625;54.322;18.582;2023-05-07T01:27:43;101828.20;;;4.48
69435;BMP180;56625;54.322;18.582;2023-05-07T01:30:12;101830.60;;;4.40
69435;BMP180;56625;54.322;18.582;2023-05-07T01:32:47;101832.80;;;4.30
69435;BMP180;56625;54.322;18.582;2023-05-07T01:35:20;101839.80;;;4.30
69435;BMP180;56625;54.322;18.582;2023-05-07T01:37:50;101840.00;;;4.30
69435;BMP180;56625;54.322;18.582;2023-05-07T01:40:18;101839.80;;;4.20
69435;BMP180;56625;54.322;18.582;2023-05-07T01:42:47;101839.60;;;4.20
69435;BMP180;56625;54.322;18.582;2023-05-07T01:45:16;101840.40;;;4.10
69435;BMP180;56625;54.322;18.582;2023-05-07T01:47:44;101842.00;;;4.10
69435;BMP180;56625;54.322;18.582;2023-05-07T01:50:12;101839.40;;;4.10
69435;BMP180;56625;54.322;18.582;2023-05-07T01:52:41;101842.60;;;4.10
69435;BMP180;56625;54.322;18.582;2023-05-07T01:55:09;101845.20;;;4.10
69435;BMP180;56625;54.322;18.582;2023-05-07T01:57:37;101850.40;;;4.10
69435;BMP180;56625;54.322;18.582;2023-05-07T02:00:05;101849.40;;;4.00
69435;BMP180;56625;54.322;18.582;2023-05-07T02:02:34;101850.40;;;4.00
69435;BMP180;56625;54.322;18.582;2023-05-07T02:05:02;101854.20;;;3.94
69435;BMP180;56625;54.322;18.582;2023-05-07T02:07:30;101851.40;;;3.86
69435;BMP180;56625;54.322;18.582;2023-05-07T02:09:58;101853.00;;;3.80
69435;BMP180;56625;54.322;18.582;2023-05-07T02:12:25;101854.40;;;3.80
69435;BMP180;56625;54.322;18.582;2023-05-07T02:14:53;101860.60;;;3.80
69435;BMP180;56625;54.322;18.582;2023-05-07T02:17:21;101857.80;;;3.72
69435;BMP180;56625;54.322;18.582;2023-05-07T02:19:49;101859.80;;;3.70
69435;BMP180;56625;54.322;18.582;2023-05-07T02:22:17;101868.00;;;3.70
69435;BMP180;56625;54.322;18.582;2023-05-07T02:24:45;101872.60;;;3.66
69435;BMP180;56625;54.322;18.582;2023-05-07T02:27:13;101870.40;;;3.60
69435;BMP180;56625;54.322;18.582;2023-05-07T02:29:41;101867.00;;;3.60
69435;BMP180;56625;54.322;18.582;2023-05-07T02:32:08;101874.20;;;3.60
69435;BMP180;56625;54.322;18.582;2023-05-07T02:34:36;101872.00;;;3.54
69435;BMP180;56625;54.322;18.582;2023-05-07T02:37:04;101868.60;;;3.50
69435;BMP180;56625;54.322;18.582;2023-05-07T02:39:32;101875.80;;;3.50
69435;BMP180;56625;54.322;18.582;2023-05-07T02:42:00;101877.00;;;3.40
69435;BMP180;56625;54.322;18.582;2023-05-07T02:44:29;101879.80;;;3.40
69435;BMP180;56625;54.322;18.582;2023-05-07T02:46:59;101877.20;;;3.40
69435;BMP180;56625;54.322;18.582;2023-05-07T02:49:26;101879.40;;;3.30
69435;BMP180;56625;54.322;18.582;2023-05-07T02:51:54;101882.20;;;3.30
69435;BMP180;56625;54.322;18.582;2023-05-07T02:54:23;101880.80;;;3.30
69435;BMP180;56625;54.322;18.582;2023-05-07T02:56:51;101885.40;;;3.30
69435;BMP180;56625;54.322;18.582;2023-05-07T02:59:19;101888.40;;;3.22
69435;BMP180;56625;54.322;18.582;2023-05-07T03:01:46;101884.20;;;3.20
69435;BMP180;56625;54.322;18.582;2023-05-07T03:04:16;101885.20;;;3.20
69435;BMP180;56625;54.322;18.582;2023-05-07T03:06:45;101881.40;;;3.20
69435;BMP180;56625;54.322;18.582;2023-05-07T03:09:12;101884.20;;;3.10
69435;BMP180;56625;54.322;18.582;2023-05-07T03:11:40;101887.40;;;3.10
69435;BMP180;56625;54.322;18.582;2023-05-07T03:14:08;101889.80;;;3.00
69435;BMP180;56625;54.322;18.582;2023-05-07T03:16:38;101888.60;;;3.00
69435;BMP180;56625;54.322;18.582;2023-05-07T03:19:06;101892.20;;;3.00
69435;BMP180;56625;54.322;18.582;2023-05-07T03:21:34;101892.20;;;3.00
69435;BMP180;56625;54.322;18.582;2023-05-07T03:24:02;101894.80;;;3.00
69435;BMP180;56625;54.322;18.582;2023-05-07T03:26:29;101899.40;;;3.00
69435;BMP180;56625;54.322;18.582;2023-05-07T03:28:57;101897.00;;;3.00
69435;BMP180;56625;54.322;18.582;2023-05-07T03:31:25;101900.80;;;3.00
69435;BMP180;56625;54.322;18.582;2023-05-07T03:33:55;101899.40;;;3.00
69435;BMP180;56625;54.322;18.582;2023-05-07T03:36:24;101905.20;;;2.94
69435;BMP180;56625;54.322;18.582;2023-05-07T03:38:54;101902.80;;;3.00
69435;BMP180;56625;54.322;18.582;2023-05-07T03:41:22;101907.40;;;3.02
69435;BMP180;56625;54.322;18.582;2023-05-07T03:43:50;101910.80;;;3.10
69435;BMP180;56625;54.322;18.582;2023-05-07T03:46:18;101912.40;;;3.30
69435;BMP180;56625;54.322;18.582;2023-05-07T03:48:46;101914.00;;;3.74
69435;BMP180;56625;54.322;18.582;2023-05-07T03:51:14;101908.80;;;4.22
69435;BMP180;56625;54.322;18.582;2023-05-07T03:53:42;101902.20;;;4.62
69435;BMP180;56625;54.322;18.582;2023-05-07T03:56:10;101905.00;;;4.98
69435;BMP180;56625;54.322;18.582;2023-05-07T03:58:37;101899.80;;;5.32
69435;BMP180;56625;54.322;18.582;2023-05-07T04:01:05;101899.40;;;5.60
69435;BMP180;56625;54.322;18.582;2023-05-07T04:03:33;101898.40;;;5.88
69435;BMP180;56625;54.322;18.582;2023-05-07T04:06:01;101900.40;;;6.26
69435;BMP180;56625;54.322;18.582;2023-05-07T04:08:29;101897.60;;;6.60
69435;BMP180;56625;54.322;18.582;2023-05-07T04:10:58;101901.60;;;6.72
69435;BMP180;56625;54.322;18.582;2023-05-07T04:13:30;101899.40;;;7.10
69435;BMP180;56625;54.322;18.582;2023-05-07T04:15:57;101898.40;;;7.22
69435;BMP180;56625;54.322;18.582;2023-05-07T04:18:25;101895.80;;;7.30
69435;BMP180;56625;54.322;18.582;2023-05-07T04:20:53;101895.20;;;7.38
69435;BMP180;56625;54.322;18.582;2023-05-07T04:23:21;101898.60;;;7.48
69435;BMP180;56625;54.322;18.582;2023-05-07T04:25:50;101904.20;;;7.60
69435;BMP180;56625;54.322;18.582;2023-05-07T04:28:18;101906.60;;;7.70
69435;BMP180;56625;54.322;18.582;2023-05-07T04:30:46;101902.00;;;7.70
69435;BMP180;56625;54.322;18.582;2023-05-07T04:33:14;101905.20;;;7.80
69435;BMP180;56625;54.322;18.582;2023-05-07T04:35:44;101906.80;;;7.94
69435;BMP180;56625;54.322;18.582;2023-05-07T04:38:12;101911.80;;;8.04
69435;BMP180;56625;54.322;18.582;2023-05-07T04:40:40;101914.80;;;8.16
69435;BMP180;56625;54.322;18.582;2023-05-07T04:43:08;101910.60;;;8.44
69435;BMP180;56625;54.322;18.582;2023-05-07T04:45:36;101911.00;;;8.90
69435;BMP180;56625;54.322;18.582;2023-05-07T04:48:05;101914.40;;;9.26
69435;BMP180;56625;54.322;18.582;2023-05-07T04:50:32;101917.60;;;9.64
69435;BMP180;56625;54.322;18.582;2023-05-07T04:53:00;101910.60;;;9.80
69435;BMP180;56625;54.322;18.582;2023-05-07T04:55:28;101917.00;;;10.08
69435;BMP180;56625;54.322;18.582;2023-05-07T04:57:56;101910.20;;;10.34
69435;BMP180;56625;54.322;18.582;2023-05-07T05:00:24;101918.00;;;10.86
69435;BMP180;56625;54.322;18.582;2023-05-07T05:02:52;101915.60;;;11.50
69435;BMP180;56625;54.322;18.582;2023-05-07T05:05:20;101917.00;;;11.92
69435;BMP180;56625;54.322;18.582;2023-05-07T05:07:48;101909.20;;;12.40
69435;BMP180;56625;54.322;18.582;2023-05-07T05:10:16;101917.40;;;12.54
69435;BMP180;56625;54.322;18.582;2023-05-07T05:12:44;101917.00;;;12.40
69435;BMP180;56625;54.322;18.582;2023-05-07T05:15:15;101913.00;;;12.06
69435;BMP180;56625;54.322;18.582;2023-05-07T05:17:43;101912.40;;;12.28
69435;BMP180;56625;54.322;18.582;2023-05-07T05:20:11;101911.80;;;12.84
69435;BMP180;56625;54.322;18.582;2023-05-07T05:22:42;101909.80;;;13.20
69435;BMP180;56625;54.322;18.582;2023-05-07T05:25:10;101910.20;;;13.30
69435;BMP180;56625;54.322;18.582;2023-05-07T05:27:38;101901.80;;;13.40
69435;BMP180;56625;54.322;18.582;2023-05-07T05:30:07;101913.20;;;13.20
69435;BMP180;56625;54.322;18.582;2023-05-07T05:32:35;101910.00;;;13.06
69435;BMP180;56625;54.322;18.582;2023-05-07T05:35:03;101908.00;;;13.02
69435;BMP180;56625;54.322;18.582;2023-05-07T05:37:31;101913.80;;;12.80
69435;BMP180;56625;54.322;18.582;2023-05-07T05:39:59;101916.40;;;12.70
69435;BMP180;56625;54.322;18.582;2023-05-07T05:42:27;101918.60;;;12.56
69435;BMP180;56625;54.322;18.582;2023-05-07T05:44:55;101919.80;;;12.32
69435;BMP180;56625;54.322;18.582;2023-05-07T05:47:23;101920.40;;;12.00
69435;BMP180;56625;54.322;18.582;2023-05-07T05:49:51;101925.00;;;11.82
69435;BMP180;56625;54.322;18.582;2023-05-07T05:52:18;101925.40;;;11.70
69435;BMP180;56625;54.322;18.582;2023-05-07T05:54:46;101931.80;;;11.58
69435;BMP180;56625;54.322;18.582;2023-05-07T05:57:14;101936.80;;;11.40
69435;BMP180;56625;54.322;18.582;2023-05-07T05:59:42;101940.60;;;11.46
69435;BMP180;56625;54.322;18.582;2023-05-07T06:02:10;101945.20;;;11.60
69435;BMP180;56625;54.322;18.582;2023-05-07T06:04:38;101942.60;;;11.60
69435;BMP180;56625;54.322;18.582;2023-05-07T06:07:06;101946.00;;;11.58
69435;BMP180;56625;54.322;18.582;2023-05-07T06:09:34;101945.20;;;11.70
69435;BMP180;56625;54.322;18.582;2023-05-07T06:12:02;101945.80;;;11.70
69435;BMP180;56625;54.322;18.582;2023-05-07T06:14:30;101946.40;;;11.70
69435;BMP180;56625;54.322;18.582;2023-05-07T06:16:58;101946.20;;;11.70
69435;BMP180;56625;54.322;18.582;2023-05-07T06:19:25;101954.20;;;11.70
69435;BMP180;56625;54.322;18.582;2023-05-07T06:21:55;101947.20;;;11.80
69435;BMP180;56625;54.322;18.582;2023-05-07T06:24:28;101955.60;;;11.82
69435;BMP180;56625;54.322;18.582;2023-05-07T06:26:56;101956.80;;;11.90
69435;BMP180;56625;54.322;18.582;2023-05-07T06:29:26;101957.40;;;11.90
69435;BMP180;56625;54.322;18.582;2023-05-07T06:31:54;101955.80;;;11.90
69435;BMP180;56625;54.322;18.582;2023-05-07T06:34:22;101964.80;;;11.90
69435;BMP180;56625;54.322;18.582;2023-05-07T06:36:49;101960.40;;;12.00
69435;BMP180;56625;54.322;18.582;2023-05-07T06:39:20;101963.00;;;12.10
69435;BMP180;56625;54.322;18.582;2023-05-07T06:41:48;101965.00;;;12.20
69435;BMP180;56625;54.322;18.582;2023-05-07T06:44:15;101971.80;;;12.28
69435;BMP180;56625;54.322;18.582;2023-05-07T06:46:43;101968.40;;;12.30
69435;BMP180;56625;54.322;18.582;2023-05-07T06:49:15;101967.40;;;12.20
69435;BMP180;56625;54.322;18.582;2023-05-07T06:51:43;101975.80;;;12.30
69435;BMP180;56625;54.322;18.582;2023-05-07T06:54:11;101973.60;;;12.32
69435;BMP180;56625;54.322;18.582;2023-05-07T06:56:39;101970.60;;;12.50
69435;BMP180;56625;54.322;18.582;2023-05-07T06:59:07;101977.60;;;12.50
69435;BMP180;56625;54.322;18.582;2023-05-07T07:01:34;101974.20;;;12.60
69435;BMP180;56625;54.322;18.582;2023-05-07T07:04:03;101980.80;;;12.70
69435;BMP180;56625;54.322;18.582;2023-05-07T07:06:31;101982.60;;;12.70
69435;BMP180;56625;54.322;18.582;2023-05-07T07:09:00;101981.60;;;12.74
69435;BMP180;56625;54.322;18.582;2023-05-07T07:11:28;101985.80;;;12.80
69435;BMP180;56625;54.322;18.582;2023-05-07T07:13:55;101983.80;;;12.80
69435;BMP180;56625;54.322;18.582;2023-05-07T07:16:24;101984.20;;;12.90
69435;BMP180;56625;54.322;18.582;2023-05-07T07:18:52;101984.40;;;12.94
69435;BMP180;56625;54.322;18.582;2023-05-07T07:21:20;101983.60;;;13.00
69435;BMP180;56625;54.322;18.582;2023-05-07T07:23:47;101985.60;;;13.04
69435;BMP180;56625;54.322;18.582;2023-05-07T07:26:17;101984.40;;;13.10
69435;BMP180;56625;54.322;18.582;2023-05-07T07:28:46;101994.20;;;13.10
69435;BMP180;56625;54.322;18.582;2023-05-07T07:31:14;101985.60;;;13.20
69435;BMP180;56625;54.322;18.582;2023-05-07T07:33:42;101992.60;;;13.30
69435;BMP180;56625;54.322;18.582;2023-05-07T07:36:10;101992.00;;;13.50
69435;BMP180;56625;54.322;18.582;2023-05-07T07:38:38;101995.00;;;13.60
69435;BMP180;56625;54.322;18.582;2023-05-07T07:41:08;101999.00;;;13.70
69435;BMP180;56625;54.322;18.582;2023-05-07T07:43:36;101991.60;;;13.80
69435;BMP180;56625;54.322;18.582;2023-05-07T07:46:04;101987.60;;;13.80
69435;BMP180;56625;54.322;18.582;2023-05-07T07:48:33;101978.60;;;13.80
69435;BMP180;56625;54.322;18.582;2023-05-07T07:51:01;101980.00;;;13.80
69435;BMP180;56625;54.322;18.582;2023-05-07T07:53:29;101981.20;;;13.90
69435;BMP180;56625;54.322;18.582;2023-05-07T07:55:57;101987.00;;;14.00
69435;BMP180;56625;54.322;18.582;2023-05-07T07:58:26;101982.60;;;14.08
69435;BMP180;56625;54.322;18.582;2023-05-07T08:00:55;101982.80;;;14.20
69435;BMP180;56625;54.322;18.582;2023-05-07T08:03:23;101985.20;;;14.42
69435;BMP180;56625;54.322;18.582;2023-05-07T08:05:51;101984.40;;;14.60
69435;BMP180;56625;54.322;18.582;2023-05-07T08:08:19;101982.00;;;14.70
69435;BMP180;56625;54.322;18.582;2023-05-07T08:10:47;101974.60;;;14.80
69435;BMP180;56625;54.322;18.582;2023-05-07T08:13:18;101981.40;;;14.80
69435;BMP180;56625;54.322;18.582;2023-05-07T08:15:46;101971.60;;;15.00
69435;BMP180;56625;54.322;18.582;2023-05-07T08:18:14;101972.60;;;15.10
69435;BMP180;56625;54.322;18.582;2023-05-07T08:20:42;101978.00;;;15.20
69435;BMP180;56625;54.322;18.582;2023-05-07T08:23:10;101977.40;;;15.26
69435;BMP180;56625;54.322;18.582;2023-05-07T08:25:38;101976.80;;;15.10
69435;BMP180;56625;54.322;18.582;2023-05-07T08:28:06;101988.40;;;15.14
69435;BMP180;56625;54.322;18.582;2023-05-07T08:30:36;101982.00;;;15.20
69435;BMP180;56625;54.322;18.582;2023-05-07T08:33:04;101975.40;;;15.12
69435;BMP180;56625;54.322;18.582;2023-05-07T08:35:33;101973.20;;;15.20
69435;BMP180;56625;54.322;18.582;2023-05-07T08:38:01;101980.60;;;15.30
69435;BMP180;56625;54.322;18.582;2023-05-07T08:40:37;101985.40;;;15.40
69435;BMP180;56625;54.322;18.582;2023-05-07T08:43:06;101991.40;;;15.38
69435;BMP180;56625;54.322;18.582;2023-05-07T08:45:34;101992.20;;;15.20
69435;BMP180;56625;54.322;18.582;2023-05-07T08:48:08;101998.00;;;14.90
69435;BMP180;56625;54.322;18.582;2023-05-07T08:50:38;101994.00;;;14.78
69435;BMP180;56625;54.322;18.582;2023-05-07T08:53:06;101997.20;;;14.70
69435;BMP180;56625;54.322;18.582;2023-05-07T08:55:34;102004.80;;;14.70
69435;BMP180;56625;54.322;18.582;2023-05-07T08:58:03;102003.20;;;14.68
69435;BMP180;56625;54.322;18.582;2023-05-07T09:00:32;102004.60;;;14.60
69435;BMP180;56625;54.322;18.582;2023-05-07T09:03:00;102006.00;;;14.48
69435;BMP180;56625;54.322;18.582;2023-05-07T09:05:28;102007.80;;;14.40
69435;BMP180;56625;54.322;18.582;2023-05-07T09:08:00;102008.60;;;14.50
69435;BMP180;56625;54.322;18.582;2023-05-07T09:10:29;102009.40;;;14.60
69435;BMP180;56625;54.322;18.582;2023-05-07T09:12:57;102007.20;;;14.60
69435;BMP180;56625;54.322;18.582;2023-05-07T09:15:27;102010.80;;;14.50
69435;BMP180;56625;54.322;18.582;2023-05-07T09:18:00;102012.60;;;14.66
69435;BMP180;56625;54.322;18.582;2023-05-07T09:20:31;102016.40;;;14.70
69435;BMP180;56625;54.322;18.582;2023-05-07T09:22:59;102006.40;;;14.60
69435;BMP180;56625;54.322;18.582;2023-05-07T09:25:32;102009.20;;;14.60
69435;BMP180;56625;54.322;18.582;2023-05-07T09:28:02;102011.60;;;14.58
69435;BMP180;56625;54.322;18.582;2023-05-07T09:30:32;102019.60;;;14.60
69435;BMP180;56625;54.322;18.582;2023-05-07T09:33:03;102020.60;;;14.60
69435;BMP180;56625;54.322;18.582;2023-05-07T09:35:31;102022.60;;;14.70
69435;BMP180;56625;54.322;18.582;2023-05-07T09:38:00;102017.40;;;14.60
69435;BMP180;56625;54.322;18.582;2023-05-07T09:40:31;102015.80;;;14.50
69435;BMP180;56625;54.322;18.582;2023-05-07T09:43:13;102024.40;;;14.50
69435;BMP180;56625;54.322;18.582;2023-05-07T09:45:42;102023.20;;;14.60
69435;BMP180;56625;54.322;18.582;2023-05-07T09:48:10;102023.00;;;14.48
69435;BMP180;56625;54.322;18.582;2023-05-07T09:50:49;102024.60;;;14.40
69435;BMP180;56625;54.322;18.582;2023-05-07T09:53:19;102023.40;;;14.50
69435;BMP180;56625;54.322;18.582;2023-05-07T09:55:48;102026.40;;;14.50
69435;BMP180;56625;54.322;18.582;2023-05-07T09:58:18;102021.20;;;14.60
69435;BMP180;56625;54.322;18.582;2023-05-07T10:00:46;102037.60;;;14.58
69435;BMP180;56625;54.322;18.582;2023-05-07T10:03:15;102032.20;;;14.50
69435;BMP180;56625;54.322;18.582;2023-05-07T10:05:43;102030.40;;;14.64
69435;BMP180;56625;54.322;18.582;2023-05-07T10:08:12;102038.40;;;14.70
69435;BMP180;56625;54.322;18.582;2023-05-07T10:10:41;102039.60;;;14.70
69435;BMP180;56625;54.322;18.582;2023-05-07T10:13:10;102039.00;;;14.70
69435;BMP180;56625;54.322;18.582;2023-05-07T10:15:39;102036.20;;;14.80
69435;BMP180;56625;54.322;18.582;2023-05-07T10:18:08;102036.00;;;14.80
69435;BMP180;56625;54.322;18.582;2023-05-07T10:20:39;102037.60;;;14.80
69435;BMP180;56625;54.322;18.582;2023-05-07T10:23:15;102034.60;;;14.90
69435;BMP180;56625;54.322;18.582;2023-05-07T10:25:46;102035.60;;;15.00
69435;BMP180;56625;54.322;18.582;2023-05-07T10:28:17;102037.20;;;15.00
69435;BMP180;56625;54.322;18.582;2023-05-07T10:33:39;102027.60;;;15.30
69435;BMP180;56625;54.322;18.582;2023-05-07T10:36:07;102029.20;;;15.28
69435;BMP180;56625;54.322;18.582;2023-05-07T10:38:35;102030.00;;;15.20
69435;BMP180;56625;54.322;18.582;2023-05-07T10:41:04;102024.40;;;15.10
69435;BMP180;56625;54.322;18.582;2023-05-07T10:43:42;102024.20;;;15.10
69435;BMP180;56625;54.322;18.582;2023-05-07T10:46:21;102029.80;;;15.20
69435;BMP180;56625;54.322;18.582;2023-05-07T10:49:10;102034.00;;;15.14
69435;BMP180;56625;54.322;18.582;2023-05-07T10:51:39;102030.80;;;15.10
69435;BMP180;56625;54.322;18.582;2023-05-07T10:56:40;102018.40;;;15.10
69435;BMP180;56625;54.322;18.582;2023-05-07T11:01:57;102014.00;;;15.10
69435;BMP180;56625;54.322;18.582;2023-05-07T11:04:30;102009.20;;;15.20
69435;BMP180;56625;54.322;18.582;2023-05-07T11:10:01;102011.80;;;15.30
69435;BMP180;56625;54.322;18.582;2023-05-07T11:15:07;102023.00;;;15.48
69435;BMP180;56625;54.322;18.582;2023-05-07T11:17:54;102024.40;;;15.40
69435;BMP180;56625;54.322;18.582;2023-05-07T11:20:52;102031.20;;;15.40
69435;BMP180;56625;54.322;18.582;2023-05-07T11:26:08;102027.20;;;15.40
69435;BMP180;56625;54.322;18.582;2023-05-07T11:28:43;102029.40;;;15.42
69435;BMP180;56625;54.322;18.582;2023-05-07T11:31:11;102037.00;;;15.24
69435;BMP180;56625;54.322;18.582;2023-05-07T11:33:39;102047.40;;;15.20
69435;BMP180;56625;54.322;18.582;2023-05-07T11:36:08;102037.40;;;15.20
69435;BMP180;56625;54.322;18.582;2023-05-07T11:38:37;102041.00;;;15.20
69435;BMP180;56625;54.322;18.582;2023-05-07T11:41:07;102044.60;;;15.20
69435;BMP180;56625;54.322;18.582;2023-05-07T11:43:35;102045.00;;;15.20
69435;BMP180;56625;54.322;18.582;2023-05-07T11:46:12;102039.20;;;15.08
69435;BMP180;56625;54.322;18.582;2023-05-07T11:48:43;102045.60;;;15.00
69435;BMP180;56625;54.322;18.582;2023-05-07T11:51:11;102045.20;;;15.00
69435;BMP180;56625;54.322;18.582;2023-05-07T11:53:42;102042.80;;;15.10
69435;BMP180;56625;54.322;18.582;2023-05-07T11:56:13;102050.80;;;15.20
69435;BMP180;56625;54.322;18.582;2023-05-07T11:58:44;102043.20;;;15.12
69435;BMP180;56625;54.322;18.582;2023-05-07T12:01:14;102042.20;;;14.98
69435;BMP180;56625;54.322;18.582;2023-05-07T12:03:44;102063.20;;;14.92
69435;BMP180;56625;54.322;18.582;2023-05-07T12:06:16;102055.40;;;14.96
69435;BMP180;56625;54.322;18.582;2023-05-07T12:08:46;102065.00;;;14.84
69435;BMP180;56625;54.322;18.582;2023-05-07T12:11:22;102060.60;;;14.74
69435;BMP180;56625;54.322;18.582;2023-05-07T12:13:53;102052.80;;;14.64
69435;BMP180;56625;54.322;18.582;2023-05-07T12:16:27;102054.80;;;14.74
69435;BMP180;56625;54.322;18.582;2023-05-07T12:18:56;102046.20;;;14.80
69435;BMP180;56625;54.322;18.582;2023-05-07T12:21:26;102056.20;;;14.80
69435;BMP180;56625;54.322;18.582;2023-05-07T12:23:57;102043.80;;;14.80
69435;BMP180;56625;54.322;18.582;2023-05-07T12:26:26;102055.80;;;14.70
69435;BMP180;56625;54.322;18.582;2023-05-07T12:28:54;102058.60;;;14.80
69435;BMP180;56625;54.322;18.582;2023-05-07T12:31:26;102062.20;;;15.04
69435;BMP180;56625;54.322;18.582;2023-05-07T12:33:56;102054.80;;;15.14
69435;BMP180;56625;54.322;18.582;2023-05-07T12:36:38;102056.60;;;15.20
69435;BMP180;56625;54.322;18.582;2023-05-07T12:39:08;102061.00;;;15.00
69435;BMP180;56625;54.322;18.582;2023-05-07T12:41:58;102063.60;;;15.00
69435;BMP180;56625;54.322;18.582;2023-05-07T12:44:34;102062.80;;;14.82
69435;BMP180;56625;54.322;18.582;2023-05-07T12:47:09;102063.00;;;14.90
69435;BMP180;56625;54.322;18.582;2023-05-07T12:49:41;102071.20;;;14.90
69435;BMP180;56625;54.322;18.582;2023-05-07T12:52:11;102070.80;;;14.82
69435;BMP180;56625;54.322;18.582;2023-05-07T12:54:39;102069.40;;;14.88
69435;BMP180;56625;54.322;18.582;2023-05-07T12:57:09;102079.40;;;14.80
69435;BMP180;56625;54.322;18.582;2023-05-07T12:59:40;102065.00;;;14.70
69435;BMP180;56625;54.322;18.582;2023-05-07T13:02:09;102083.20;;;14.70
69435;BMP180;56625;54.322;18.582;2023-05-07T13:04:37;102076.00;;;14.70
69435;BMP180;56625;54.322;18.582;2023-05-07T13:07:06;102076.40;;;14.80
69435;BMP180;56625;54.322;18.582;2023-05-07T13:09:33;102071.80;;;14.82
69435;BMP180;56625;54.322;18.582;2023-05-07T13:12:01;102077.20;;;15.00
69435;BMP180;56625;54.322;18.582;2023-05-07T13:14:31;102079.60;;;15.10
69435;BMP180;56625;54.322;18.582;2023-05-07T13:16:59;102073.40;;;15.18
69435;BMP180;56625;54.322;18.582;2023-05-07T13:19:27;102080.80;;;15.04
69435;BMP180;56625;54.322;18.582;2023-05-07T13:21:58;102078.40;;;14.92
69435;BMP180;56625;54.322;18.582;2023-05-07T13:24:26;102083.20;;;15.00
69435;BMP180;56625;54.322;18.582;2023-05-07T13:26:58;102085.80;;;14.90
69435;BMP180;56625;54.322;18.582;2023-05-07T13:29:29;102080.00;;;14.80
69435;BMP180;56625;54.322;18.582;2023-05-07T13:31:58;102073.60;;;14.70
69435;BMP180;56625;54.322;18.582;2023-05-07T13:34:28;102080.00;;;14.70
69435;BMP180;56625;54.322;18.582;2023-05-07T13:36:55;102073.00;;;14.70
69435;BMP180;56625;54.322;18.582;2023-05-07T13:39:24;102070.20;;;14.80
69435;BMP180;56625;54.322;18.582;2023-05-07T13:41:52;102069.20;;;14.80
69435;BMP180;56625;54.322;18.582;2023-05-07T13:44:20;102074.00;;;14.70
69435;BMP180;56625;54.322;18.582;2023-05-07T13:46:48;102082.20;;;14.70
69435;BMP180;56625;54.322;18.582;2023-05-07T13:49:16;102075.40;;;14.70
69435;BMP180;56625;54.322;18.582;2023-05-07T13:51:44;102077.80;;;14.70
69435;BMP180;56625;54.322;18.582;2023-05-07T13:54:11;102063.80;;;14.80
69435;BMP180;56625;54.322;18.582;2023-05-07T13:56:39;102068.40;;;14.80
69435;BMP180;56625;54.322;18.582;2023-05-07T13:59:07;102074.00;;;14.90
69435;BMP180;56625;54.322;18.582;2023-05-07T14:01:36;102071.20;;;14.80
69435;BMP180;56625;54.322;18.582;2023-05-07T14:04:04;102072.20;;;14.66
69435;BMP180;56625;54.322;18.582;2023-05-07T14:06:32;102078.60;;;14.58
69435;BMP180;56625;54.322;18.582;2023-05-07T14:09:00;102070.60;;;14.48
69435;BMP180;56625;54.322;18.582;2023-05-07T14:11:27;102071.80;;;14.52
69435;BMP180;56625;54.322;18.582;2023-05-07T14:13:55;102078.60;;;14.50
69435;BMP180;56625;54.322;18.582;2023-05-07T14:16:24;102074.00;;;14.40